Time;durP1;ratioP1;P1;durP2;ratioP2;P2;SDS_P1;SDS_P2;PMS_P1;PMS_P2;Temp;Humidity;BMP_temperature;BMP_pressure;BME280_temperature;BME280_humidity;BME280_pressure;Samples;Min_cycle;Max_cycle;Signal;HPM_P1;HPM_P2
2023/05/06 00:01:01;;;;;;;2.35;1.63;;;;;;;21.36;44.52;96582.00;5033915;28;20025;-29
2023/05/06 00:03:27;;;;;;;2.88;1.83;;;;;;;21.27;44.51;96582.19;5033598;28;20040;-31
2023/05/06 00:05:53;;;;;;;2.38;1.70;;;;;;;21.17;44.78;96585.13;5034131;28;20369;-29
2023/05/06 00:08:19;;;;;;;1.95;1.50;;;;;;;21.26;44.49;96580.69;5033885;28;20025;-29
2023/05/06 00:10:44;;;;;;;3.20;1.40;;;;;;;21.31;44.37;96574.44;5033947;28;20500;-29
2023/05/06 00:13:10;;;;;;;2.10;1.90;;;;;;;21.30;44.34;96581.19;5034195;28;20013;-29
2023/05/06 00:15:36;;;;;;;1.95;1.60;;;;;;;21.28;44.26;96575.41;5034555;28;20104;-29
2023/05/06 00:18:01;;;;;;;1.55;1.15;;;;;;;21.11;45.09;96578.81;5033432;28;20079;-29
2023/05/06 00:20:27;;;;;;;1.98;1.35;;;;;;;21.10;45.11;96571.81;5033397;28;20017;-29
2023/05/06 00:22:53;;;;;;;1.80;1.70;;;;;;;21.19;44.75;96572.88;5033411;28;20453;-29
2023/05/06 00:25:18;;;;;;;1.95;1.58;;;;;;;21.19;44.74;96564.59;5033216;28;20088;-30
2023/05/06 00:27:44;;;;;;;1.90;1.63;;;;;;;21.37;44.71;96572.47;5033487;28;20388;-30
2023/05/06 00:30:11;;;;;;;3.03;1.80;;;;;;;21.12;45.15;96561.03;5033871;28;20023;-31
2023/05/06 00:32:37;;;;;;;3.17;1.50;;;;;;;20.88;45.82;96565.41;5033347;28;20071;-29
2023/05/06 00:35:03;;;;;;;2.60;1.40;;;;;;;21.00;45.67;96555.94;5033860;28;20025;-29
2023/05/06 00:37:29;;;;;;;1.77;1.60;;;;;;;21.03;45.54;96561.22;5036501;28;20451;-29
2023/05/06 00:39:54;;;;;;;2.75;1.80;;;;;;;21.15;45.47;96556.53;5033465;28;20024;-29
2023/05/06 00:42:22;;;;;;;1.95;1.50;;;;;;;20.96;45.95;96553.41;5033178;28;20028;-29
2023/05/06 00:44:50;;;;;;;3.50;1.65;;;;;;;20.91;46.10;96558.88;5033261;28;20055;-29
2023/05/06 00:47:17;;;;;;;1.73;1.63;;;;;;;20.76;46.11;96554.31;5033304;28;20021;-29
2023/05/06 00:49:45;;;;;;;2.25;1.63;;;;;;;20.88;45.92;96560.66;5033501;28;20049;-29
2023/05/06 00:52:11;;;;;;;2.00;1.30;;;;;;;20.82;46.10;96559.84;5032823;28;20377;-29
2023/05/06 00:54:36;;;;;;;2.63;1.63;;;;;;;20.87;45.83;96552.88;5033158;28;20053;-29
2023/05/06 00:57:02;;;;;;;1.63;1.50;;;;;;;20.77;46.04;96560.56;5033432;28;20030;-29
2023/05/06 00:59:28;;;;;;;2.25;1.60;;;;;;;20.78;46.24;96553.78;5032924;28;20543;-29
2023/05/06 01:01:53;;;;;;;2.55;1.80;;;;;;;20.75;46.28;96552.78;5033193;28;20362;-29
2023/05/06 01:04:20;;;;;;;2.65;1.58;;;;;;;20.89;45.66;96558.66;5032974;28;20107;-29
2023/05/06 01:07:03;;;;;;;6.20;1.90;;;;;;;20.85;46.01;96556.09;5033225;28;20038;-29
2023/05/06 01:09:37;;;;;;;1.80;1.52;;;;;;;20.93;45.70;96551.63;5039416;28;20021;-30
2023/05/06 01:12:18;;;;;;;2.92;1.80;;;;;;;20.95;45.70;96553.91;5033096;28;20017;-29
2023/05/06 01:15:07;;;;;;;2.85;1.52;;;;;;;21.03;45.82;96552.94;5033234;28;20105;-29
2023/05/06 01:17:38;;;;;;;2.90;1.90;;;;;;;21.14;45.64;96550.25;5032790;28;20025;-29
2023/05/06 01:20:06;;;;;;;2.13;1.73;;;;;;;21.07;45.77;96555.47;5032872;28;20030;-29
2023/05/06 01:22:35;;;;;;;1.98;1.80;;;;;;;20.92;46.55;96552.88;5031890;28;20018;-30
2023/05/06 01:25:01;;;;;;;2.25;1.60;;;;;;;21.00;46.42;96548.44;5032661;28;20021;-30
2023/05/06 01:27:27;;;;;;;1.95;1.60;;;;;;;20.77;46.49;96549.53;5032533;28;20036;-29
2023/05/06 01:29:52;;;;;;;2.25;1.75;;;;;;;20.89;46.31;96556.66;5033550;28;20104;-29
2023/05/06 01:32:18;;;;;;;2.20;1.90;;;;;;;20.91;46.43;96548.63;5032746;28;20466;-31
2023/05/06 01:35:21;;;;;;;2.20;1.73;;;;;;;20.87;46.25;96550.88;5032940;28;20104;-29
2023/05/06 01:37:58;;;;;;;3.45;1.77;;;;;;;21.00;45.83;96553.19;5035558;28;20551;-29
2023/05/06 01:40:26;;;;;;;2.20;2.00;;;;;;;20.91;45.94;96554.13;5036670;28;20527;-29
2023/05/06 01:42:53;;;;;;;2.08;1.83;;;;;;;20.97;45.42;96552.16;5036320;28;20028;-29
2023/05/06 01:45:23;;;;;;;2.50;1.98;;;;;;;20.85;45.83;96545.09;5036541;28;20410;-30
2023/05/06 01:47:49;;;;;;;2.17;1.75;;;;;;;20.85;45.92;96545.09;5036316;28;20088;-29
2023/05/06 01:50:14;;;;;;;4.38;2.00;;;;;;;20.85;45.89;96550.59;5036460;28;20021;-29
2023/05/06 01:52:40;;;;;;;2.58;2.03;;;;;;;21.07;45.39;96547.97;5042878;28;20037;-29
2023/05/06 01:55:06;;;;;;;4.13;1.92;;;;;;;20.87;45.38;96539.84;5035798;28;20050;-29
2023/05/06 01:57:31;;;;;;;3.03;2.05;;;;;;;20.92;45.30;96552.13;5036336;28;20025;-29
2023/05/06 01:59:57;;;;;;;2.20;2.00;;;;;;;20.82;45.47;96545.28;5036027;28;20047;-29
2023/05/06 02:02:23;;;;;;;2.25;2.05;;;;;;;20.93;45.37;96548.88;5036018;28;20136;-29
2023/05/06 02:04:48;;;;;;;5.90;2.05;;;;;;;20.93;45.13;96543.38;5036047;28;20032;-29
2023/05/06 02:07:13;;;;;;;2.75;1.75;;;;;;;20.74;45.63;96545.75;5036134;28;20052;-30
2023/05/06 02:09:39;;;;;;;2.47;2.10;;;;;;;20.60;45.97;96540.41;5036164;28;20079;-29
2023/05/06 02:12:05;;;;;;;3.00;1.75;;;;;;;20.87;45.35;96539.06;5036634;28;20044;-29
2023/05/06 02:14:30;;;;;;;1.83;1.63;;;;;;;20.52;45.88;96531.06;5036046;28;20037;-29
2023/05/06 02:16:55;;;;;;;2.15;1.95;;;;;;;20.72;45.97;96531.72;5035868;28;20017;-29
2023/05/06 02:19:21;;;;;;;2.65;2.00;;;;;;;20.84;45.61;96529.03;5035970;28;20025;-29
2023/05/06 02:21:46;;;;;;;2.40;2.05;;;;;;;20.71;45.55;96526.69;5035694;28;20026;-29
2023/05/06 02:24:11;;;;;;;2.42;2.08;;;;;;;20.69;45.68;96526.41;5035849;28;20028;-29
2023/05/06 02:26:37;;;;;;;2.33;1.98;;;;;;;20.81;45.55;96522.50;5035431;28;20469;-29
2023/05/06 02:29:04;;;;;;;3.42;2.20;;;;;;;20.67;45.88;96526.16;5035576;28;20052;-31
2023/05/06 02:31:29;;;;;;;2.40;2.10;;;;;;;20.52;46.14;96522.81;5042755;28;20087;-29
2023/05/06 02:33:54;;;;;;;2.40;2.17;;;;;;;20.67;46.02;96523.41;5035577;28;20420;-29
2023/05/06 02:36:20;;;;;;;3.38;2.30;;;;;;;20.66;45.93;96516.38;5035773;28;20017;-29
2023/05/06 02:38:45;;;;;;;4.30;2.50;;;;;;;20.56;46.07;96518.56;5034168;28;20052;-29
2023/05/06 02:41:11;;;;;;;2.70;2.28;;;;;;;20.56;46.11;96518.56;5035494;28;20029;-30
2023/05/06 02:43:37;;;;;;;3.15;2.40;;;;;;;20.44;46.23;96522.50;5034978;28;20029;-29
2023/05/06 02:46:03;;;;;;;3.28;2.05;;;;;;;20.71;45.58;96529.44;5035425;28;20055;-29
2023/05/06 02:48:28;;;;;;;2.60;2.03;;;;;;;20.68;45.47;96527.66;5034746;28;20025;-30
2023/05/06 02:50:54;;;;;;;3.45;1.90;;;;;;;20.62;45.51;96522.13;5035366;28;20030;-29
2023/05/06 02:53:19;;;;;;;3.13;1.90;;;;;;;20.72;45.47;96526.19;5035340;28;20457;-29
2023/05/06 02:55:45;;;;;;;2.03;1.83;;;;;;;20.60;45.72;96521.88;5035017;28;20064;-30
2023/05/06 02:58:11;;;;;;;2.75;1.90;;;;;;;20.76;45.16;96526.00;5033693;28;20075;-31
2023/05/06 03:00:37;;;;;;;1.85;1.60;;;;;;;20.60;45.57;96523.88;5035359;28;20342;-30
2023/05/06 03:03:02;;;;;;;5.70;1.80;;;;;;;20.49;45.72;96523.78;5043223;28;20036;-28
2023/05/06 03:05:28;;;;;;;3.55;1.67;;;;;;;20.76;44.94;96524.00;5035056;28;20025;-29
2023/05/06 03:07:54;;;;;;;3.45;1.73;;;;;;;20.71;44.86;96523.94;5035078;28;20053;-29
2023/05/06 03:10:19;;;;;;;2.20;1.55;;;;;;;20.65;45.03;96525.88;5034798;28;20022;-29
2023/05/06 03:12:45;;;;;;;1.95;1.50;;;;;;;20.61;45.21;96517.09;5035532;28;20109;-29
2023/05/06 03:15:10;;;;;;;3.30;1.90;;;;;;;20.63;44.35;96512.63;5034498;28;20022;-29
2023/05/06 03:17:36;;;;;;;1.75;1.40;;;;;;;20.55;44.54;96513.53;5042524;28;20477;-29
2023/05/06 03:20:02;;;;;;;1.67;1.38;;;;;;;20.61;44.74;96520.63;5034689;28;20025;-29
2023/05/06 03:22:28;;;;;;;2.40;1.20;;;;;;;20.63;44.64;96512.63;5034703;28;20082;-29
2023/05/06 03:24:53;;;;;;;2.65;1.55;;;;;;;20.48;44.42;96517.53;5033160;28;20466;-29
2023/05/06 03:27:20;;;;;;;1.65;1.30;;;;;;;20.64;44.40;96519.66;5034564;28;20017;-29
2023/05/06 03:29:45;;;;;;;1.98;1.33;;;;;;;20.68;44.03;96513.88;5035235;28;20017;-29
2023/05/06 03:32:10;;;;;;;2.45;1.10;;;;;;;20.69;43.53;96515.41;5034249;28;20017;-29
2023/05/06 03:34:36;;;;;;;1.80;1.30;;;;;;;20.51;44.04;96513.03;5034449;28;20029;-29
2023/05/06 03:37:02;;;;;;;3.88;1.45;;;;;;;20.72;43.39;96515.19;5033257;28;20021;-29
2023/05/06 03:39:27;;;;;;;2.22;1.10;;;;;;;20.59;43.57;96506.56;5034304;28;20112;-29
2023/05/06 03:41:52;;;;;;;1.88;0.98;;;;;;;20.58;43.10;96505.06;5034573;28;20057;-29
2023/05/06 03:44:18;;;;;;;2.45;0.90;;;;;;;20.87;42.59;96504.00;5034064;28;20025;-31
2023/05/06 03:46:43;;;;;;;2.25;1.10;;;;;;;20.78;43.29;96501.41;5033955;28;20469;-29
2023/05/06 03:49:09;;;;;;;1.45;1.20;;;;;;;20.68;43.01;96505.63;5034720;28;20108;-29
2023/05/06 03:51:34;;;;;;;1.63;0.95;;;;;;;20.70;42.85;96505.88;5034377;28;20104;-29
2023/05/06 03:54:00;;;;;;;1.48;1.00;;;;;;;20.74;42.61;96507.19;5033785;28;20497;-29
2023/05/06 03:56:25;;;;;;;1.38;1.02;;;;;;;20.71;43.27;96507.41;5036728;28;20529;-29
2023/05/06 03:58:52;;;;;;;2.58;1.10;;;;;;;20.69;43.61;96501.63;5033633;28;20029;-29
2023/05/06 04:01:18;;;;;;;1.90;1.08;;;;;;;20.66;43.44;96499.84;5033773;28;20452;-29
2023/05/06 04:03:43;;;;;;;1.30;1.20;;;;;;;20.58;43.71;96501.56;5033967;28;20034;-30
2023/05/06 04:06:09;;;;;;;1.35;1.05;;;;;;;20.56;43.93;96506.78;5033782;28;20473;-29
2023/05/06 04:08:34;;;;;;;1.70;1.17;;;;;;;20.55;43.87;96505.28;5034148;28;20036;-29
2023/05/06 04:11:05;;;;;;;1.35;1.00;;;;;;;20.60;43.91;96510.09;5033941;28;20458;-30
2023/05/06 04:13:30;;;;;;;2.58;1.38;;;;;;;20.56;43.45;96506.78;5040966;28;20075;-30
2023/05/06 04:15:56;;;;;;;1.60;1.17;;;;;;;20.41;43.20;96513.19;5033573;28;20469;-29
2023/05/06 04:18:21;;;;;;;1.08;0.98;;;;;;;20.62;42.91;96508.34;5033454;28;20029;-29
2023/05/06 04:20:47;;;;;;;2.30;1.17;;;;;;;20.70;42.63;96512.16;5033726;28;20545;-29
2023/05/06 04:23:13;;;;;;;1.08;0.95;;;;;;;20.72;42.84;96511.66;5033682;28;20018;-29
2023/05/06 04:25:41;;;;;;;1.13;0.90;;;;;;;20.63;42.46;96512.63;5033524;28;20417;-29
2023/05/06 04:28:11;;;;;;;1.55;1.10;;;;;;;20.71;42.30;96516.41;5033424;28;20021;-29
2023/05/06 04:30:36;;;;;;;1.67;1.10;;;;;;;20.67;41.54;96523.41;5033660;28;20053;-29
2023/05/06 04:33:02;;;;;;;1.88;1.00;;;;;;;20.58;41.94;96523.59;5033432;28;20064;-29
2023/05/06 04:35:28;;;;;;;1.27;0.90;;;;;;;20.58;41.03;96529.84;5042678;28;20025;-29
2023/05/06 04:37:55;;;;;;;1.20;0.90;;;;;;;20.51;41.01;96532.31;5033563;28;20446;-31
2023/05/06 04:40:22;;;;;;;1.05;0.90;;;;;;;20.53;41.20;96535.31;5033186;28;20018;-29
2023/05/06 04:42:47;;;;;;;1.38;0.88;;;;;;;20.58;40.66;96537.38;5033076;28;20025;-29
2023/05/06 04:45:13;;;;;;;0.82;0.73;;;;;;;20.71;40.75;96541.22;5033535;28;20024;-29
2023/05/06 04:47:39;;;;;;;2.60;0.90;;;;;;;20.56;40.66;96542.59;5033253;28;20529;-29
2023/05/06 04:50:04;;;;;;;2.13;0.80;;;;;;;20.71;40.86;96540.47;5033145;28;20029;-29
2023/05/06 04:52:30;;;;;;;1.75;0.85;;;;;;;20.58;40.32;96546.38;5033435;28;20489;-29
2023/05/06 04:54:56;;;;;;;2.47;1.17;;;;;;;20.66;40.18;96541.94;5032935;28;20049;-29
2023/05/06 04:57:21;;;;;;;1.17;0.70;;;;;;;20.79;40.49;96542.28;5039470;28;20032;-29
2023/05/06 04:59:47;;;;;;;0.95;0.70;;;;;;;20.69;40.48;96546.47;5037424;28;20420;-29
2023/05/06 05:02:12;;;;;;;1.42;0.75;;;;;;;20.56;40.30;96548.13;5032927;28;20028;-29
2023/05/06 05:04:38;;;;;;;0.90;0.73;;;;;;;20.60;40.24;96546.66;5032898;28;20541;-29
2023/05/06 05:07:03;;;;;;;1.10;0.80;;;;;;;20.87;40.21;96544.59;5033345;28;20078;-29
2023/05/06 05:09:30;;;;;;;0.90;0.75;;;;;;;20.65;40.46;96554.19;5033220;28;20051;-29
2023/05/06 05:11:55;;;;;;;1.17;0.60;;;;;;;20.74;40.43;96554.03;5041883;28;20052;-29
2023/05/06 05:14:20;;;;;;;2.80;0.77;;;;;;;20.58;40.42;96543.63;5038644;28;20053;-29
2023/05/06 05:16:46;;;;;;;1.10;0.60;;;;;;;20.69;39.97;96549.22;5036928;28;20021;-29
2023/05/06 05:19:11;;;;;;;2.13;0.70;;;;;;;20.79;39.68;96545.03;5037345;28;20035;-29
2023/05/06 05:21:37;;;;;;;0.85;0.70;;;;;;;20.78;40.61;96551.03;5036759;28;20025;-29
2023/05/06 05:24:03;;;;;;;1.23;0.60;;;;;;;20.88;40.13;96551.63;5036956;28;20021;-29
2023/05/06 05:26:28;;;;;;;2.03;0.77;;;;;;;20.76;40.49;96548.03;5036793;28;20041;-32
2023/05/06 05:28:54;;;;;;;0.80;0.65;;;;;;;20.82;40.59;96551.56;5036845;28;20029;-29
2023/05/06 05:31:20;;;;;;;1.00;0.55;;;;;;;20.83;40.34;96557.84;5036571;28;20516;-29
2023/05/06 05:33:45;;;;;;;1.00;0.82;;;;;;;20.72;39.95;96553.00;5036726;28;20113;-29
2023/05/06 05:36:14;;;;;;;1.08;0.68;;;;;;;20.72;40.20;96548.25;5036747;28;20380;-30
2023/05/06 05:38:40;;;;;;;2.97;0.70;;;;;;;20.97;40.09;96559.69;5036544;28;20459;-29
2023/05/06 05:41:05;;;;;;;2.05;0.90;;;;;;;20.85;40.33;96547.84;5035413;28;20044;-29
2023/05/06 05:43:31;;;;;;;2.85;0.80;;;;;;;20.88;40.47;96549.63;5036254;28;20477;-30
2023/05/06 05:45:57;;;;;;;2.33;0.70;;;;;;;20.90;40.42;96560.13;5035025;28;20025;-30
2023/05/06 05:48:22;;;;;;;2.13;0.60;;;;;;;21.00;40.58;96556.72;5036458;28;20029;-29
2023/05/06 05:50:48;;;;;;;0.75;0.60;;;;;;;20.87;40.29;96556.38;5036417;28;20469;-29
2023/05/06 05:53:13;;;;;;;1.73;0.50;;;;;;;20.83;40.79;96553.06;5037100;28;20020;-29
2023/05/06 05:55:39;;;;;;;0.80;0.70;;;;;;;20.91;40.83;96554.13;5036506;28;20544;-29
2023/05/06 05:58:04;;;;;;;1.92;0.60;;;;;;;20.81;40.89;96550.06;5036219;28;20021;-29
2023/05/06 06:00:29;;;;;;;1.00;0.80;;;;;;;20.81;40.92;96558.31;5036437;28;20033;-29
2023/05/06 06:02:55;;;;;;;1.45;0.70;;;;;;;20.88;40.48;96559.88;5038722;28;20025;-29
2023/05/06 06:05:20;;;;;;;1.20;0.70;;;;;;;20.83;40.38;96550.31;5036074;28;20099;-29
2023/05/06 06:07:47;;;;;;;0.70;0.60;;;;;;;20.86;39.96;96545.84;5036055;28;20021;-29
2023/05/06 06:10:14;;;;;;;2.20;0.80;;;;;;;20.94;40.31;96553.16;5036026;28;20025;-29
2023/05/06 06:12:39;;;;;;;1.35;0.70;;;;;;;20.88;40.22;96549.63;5043417;28;20032;-29
2023/05/06 06:15:06;;;;;;;1.00;0.60;;;;;;;20.92;40.32;96547.38;5035954;28;20017;-29
2023/05/06 06:17:31;;;;;;;0.93;0.60;;;;;;;20.89;40.25;96550.38;5035701;28;20029;-29
2023/05/06 06:19:58;;;;;;;1.17;0.70;;;;;;;21.03;40.76;96541.16;5035762;28;20434;-30
2023/05/06 06:22:23;;;;;;;2.25;0.70;;;;;;;20.90;40.10;96549.84;5033709;28;20367;-29
2023/05/06 06:24:50;;;;;;;0.82;0.60;;;;;;;21.02;40.01;96547.91;5035889;28;20068;-29
2023/05/06 06:27:15;;;;;;;1.48;0.77;;;;;;;21.11;40.64;96556.78;5035494;28;20048;-29
2023/05/06 06:29:41;;;;;;;1.75;1.05;;;;;;;21.14;40.98;96560.56;5035689;28;20025;-29
2023/05/06 06:32:06;;;;;;;1.83;0.90;;;;;;;21.05;41.11;96557.97;5041829;28;20429;-29
2023/05/06 06:34:32;;;;;;;1.48;0.80;;;;;;;21.12;40.75;96555.53;5034291;28;20048;-29
2023/05/06 06:36:57;;;;;;;2.50;1.00;;;;;;;21.05;40.79;96553.22;5035601;28;20029;-31
2023/05/06 06:39:23;;;;;;;2.72;1.10;;;;;;;21.13;40.93;96548.00;5035454;28;20037;-29
2023/05/06 06:41:48;;;;;;;1.83;0.98;;;;;;;21.15;41.09;96549.00;5035060;28;20021;-29
2023/05/06 06:44:14;;;;;;;2.95;1.08;;;;;;;20.96;42.03;96547.91;5035529;28;20017;-29
2023/05/06 06:46:40;;;;;;;1.95;0.95;;;;;;;21.09;41.65;96553.75;5035381;28;20477;-29
2023/05/06 06:49:05;;;;;;;2.10;0.90;;;;;;;21.16;41.35;96550.50;5035391;28;20044;-30
2023/05/06 06:51:32;;;;;;;3.55;0.90;;;;;;;21.10;41.01;96549.75;5040641;28;20017;-29
2023/05/06 06:53:58;;;;;;;2.95;0.80;;;;;;;21.26;41.41;96550.34;5037336;28;20041;-30
2023/05/06 06:56:23;;;;;;;2.97;0.93;;;;;;;21.27;40.11;96551.84;5035128;28;20072;-29
2023/05/06 06:58:49;;;;;;;1.63;1.10;;;;;;;21.22;40.54;96545.06;5035286;28;20070;-29
2023/05/06 07:01:14;;;;;;;3.70;1.02;;;;;;;21.17;40.80;96549.25;5035086;28;22408;-29
2023/05/06 07:03:39;;;;;;;0.98;0.70;;;;;;;21.19;41.30;96557.06;5034744;28;20022;-29
2023/05/06 07:06:05;;;;;;;1.70;1.15;;;;;;;21.14;40.61;96552.28;5034943;28;20032;-29
2023/05/06 07:08:30;;;;;;;1.17;0.80;;;;;;;21.26;40.52;96555.88;5035121;28;20029;-29
2023/05/06 07:10:56;;;;;;;1.92;0.80;;;;;;;21.31;41.27;96550.38;5034930;28;20017;-29
2023/05/06 07:13:24;;;;;;;1.65;0.77;;;;;;;21.31;40.20;96553.13;5041721;28;20366;-29
2023/05/06 07:15:50;;;;;;;1.77;0.90;;;;;;;21.38;41.03;96551.91;5035019;28;20025;-29
2023/05/06 07:18:15;;;;;;;2.50;0.90;;;;;;;21.24;41.56;96547.34;5035077;28;20017;-30
2023/05/06 07:20:42;;;;;;;1.30;0.80;;;;;;;21.35;41.67;96550.91;5034436;28;20021;-29
2023/05/06 07:23:07;;;;;;;1.20;0.88;;;;;;;21.28;42.06;96554.09;5034667;28;20117;-29
2023/05/06 07:25:34;;;;;;;1.70;0.77;;;;;;;21.40;41.78;96544.63;5034735;28;20553;-29
2023/05/06 07:27:59;;;;;;;3.28;0.93;;;;;;;21.46;41.50;96545.41;5034583;28;20061;-29
2023/05/06 07:30:25;;;;;;;1.17;1.00;;;;;;;21.44;41.05;96547.16;5034782;28;20056;-29
2023/05/06 07:32:50;;;;;;;1.13;0.88;;;;;;;21.43;41.33;96551.16;5034372;28;20032;-29
2023/05/06 07:35:17;;;;;;;1.25;0.80;;;;;;;21.51;41.78;96549.47;5033667;28;20045;-29
2023/05/06 07:37:45;;;;;;;1.27;1.05;;;;;;;21.50;41.34;96559.75;5034049;28;20516;-29
2023/05/06 07:40:10;;;;;;;3.08;1.23;;;;;;;21.37;41.81;96564.19;5034192;28;20466;-29
2023/05/06 07:42:36;;;;;;;2.08;1.15;;;;;;;21.63;41.73;96556.53;5034220;28;20055;-31
2023/05/06 07:45:01;;;;;;;1.85;0.88;;;;;;;21.43;42.05;96567.72;5033872;28;20393;-31
2023/05/06 07:47:30;;;;;;;3.00;1.25;;;;;;;21.40;42.45;96561.19;5033325;28;20032;-31
2023/05/06 07:49:55;;;;;;;2.67;1.65;;;;;;;21.59;41.91;96558.78;5033826;28;20032;-27
2023/05/06 07:52:22;;;;;;;2.30;1.10;;;;;;;21.45;42.11;96568.75;5036664;28;20362;-29
2023/05/06 07:54:47;;;;;;;2.35;1.10;;;;;;;21.45;42.53;96568.75;5034390;28;20045;-29
2023/05/06 07:57:14;;;;;;;2.28;1.10;;;;;;;21.30;43.08;96572.94;5033850;28;20029;-29
2023/05/06 07:59:40;;;;;;;1.92;1.23;;;;;;;21.26;43.26;96575.19;5034245;28;20057;-29
2023/05/06 08:02:06;;;;;;;3.25;1.40;;;;;;;21.47;42.97;96576.53;5034071;28;20049;-30
2023/05/06 08:04:31;;;;;;;3.65;1.33;;;;;;;21.46;43.07;96578.53;5033936;28;20071;-29
2023/05/06 08:06:56;;;;;;;2.95;1.25;;;;;;;21.44;43.47;96577.50;5033851;28;20025;-29
2023/05/06 08:09:22;;;;;;;1.88;1.10;;;;;;;21.41;43.09;96582.00;5033746;28;20025;-29
2023/05/06 08:11:48;;;;;;;1.98;1.30;;;;;;;21.49;43.10;96579.56;5034486;28;20017;-29
2023/05/06 08:14:14;;;;;;;2.25;1.40;;;;;;;21.51;42.95;96577.06;5033876;28;20025;-30
2023/05/06 08:16:40;;;;;;;1.67;1.10;;;;;;;21.47;42.75;96576.53;5033838;28;20380;-29
2023/05/06 08:19:05;;;;;;;3.70;1.38;;;;;;;21.44;42.44;96577.50;5033464;28;20032;-29
2023/05/06 08:21:31;;;;;;;3.45;1.65;;;;;;;21.52;42.06;96575.78;5033669;28;20026;-29
2023/05/06 08:23:56;;;;;;;2.78;1.25;;;;;;;21.37;42.94;96578.00;5033568;28;20072;-29
2023/05/06 08:26:21;;;;;;;3.83;1.20;;;;;;;21.54;42.35;96575.28;5035874;28;20072;-29
2023/05/06 08:28:47;;;;;;;2.00;1.00;;;;;;;21.41;43.07;96579.25;5033511;28;20493;-29
2023/05/06 08:31:12;;;;;;;1.95;1.10;;;;;;;21.63;42.53;96561.28;5033701;28;20032;-29
2023/05/06 08:33:38;;;;;;;1.65;1.15;;;;;;;21.40;42.87;96568.72;5033515;28;20067;-29
2023/05/06 08:36:03;;;;;;;3.05;1.27;;;;;;;21.55;42.14;96572.03;5033426;28;20060;-30
2023/05/06 08:38:29;;;;;;;3.05;1.30;;;;;;;21.61;42.25;96572.84;5032937;28;20033;-29
2023/05/06 08:40:59;;;;;;;2.30;1.10;;;;;;;21.64;42.17;96571.81;5033347;28;20056;-29
2023/05/06 08:43:26;;;;;;;1.20;1.00;;;;;;;21.58;42.56;96565.53;5033253;28;20033;-29
2023/05/06 08:45:52;;;;;;;3.35;1.00;;;;;;;21.56;42.45;96564.50;5032742;28;20035;-29
2023/05/06 08:48:18;;;;;;;1.90;0.98;;;;;;;21.63;42.20;96562.06;5033047;28;20473;-30
2023/05/06 08:50:43;;;;;;;3.00;1.40;;;;;;;21.53;42.06;96574.53;5033447;28;20072;-30
2023/05/06 08:53:12;;;;;;;2.47;0.82;;;;;;;21.70;41.69;96569.09;5041232;28;20021;-29
2023/05/06 08:55:41;;;;;;;2.60;1.00;;;;;;;21.64;42.20;96569.06;5033064;28;20038;-29
2023/05/06 08:58:09;;;;;;;3.10;1.25;;;;;;;21.66;41.71;96587.88;5033075;28;20041;-29
2023/05/06 09:00:35;;;;;;;2.55;1.00;;;;;;;21.58;41.48;96584.09;5033028;28;20477;-30
2023/05/06 09:03:01;;;;;;;2.65;1.20;;;;;;;21.68;41.75;96577.88;5032977;28;20028;-29
2023/05/06 09:05:27;;;;;;;3.08;1.15;;;;;;;21.67;41.44;96584.63;5033017;28;20029;-29
2023/05/06 09:07:53;;;;;;;1.48;1.10;;;;;;;21.63;41.59;96575.84;5032932;28;20064;-29
2023/05/06 09:10:18;;;;;;;2.88;1.10;;;;;;;21.70;41.74;96589.16;5033048;28;20013;-29
2023/05/06 09:12:44;;;;;;;1.40;1.00;;;;;;;21.70;41.39;96586.41;5033566;28;20022;-29
2023/05/06 09:15:10;;;;;;;1.80;1.25;;;;;;;21.64;41.70;96579.34;5033064;28;20392;-29
2023/05/06 09:17:35;;;;;;;1.67;1.20;;;;;;;21.71;41.65;96571.34;5032985;28;20112;-29
2023/05/06 09:20:02;;;;;;;2.30;1.38;;;;;;;21.86;41.52;96579.44;5032920;28;20017;-29
2023/05/06 09:22:29;;;;;;;3.65;1.20;;;;;;;21.72;41.93;96581.16;5032765;28;20454;-29
2023/05/06 09:24:58;;;;;;;1.40;1.20;;;;;;;21.69;41.54;96573.09;5033230;28;20021;-29
2023/05/06 09:27:31;;;;;;;1.75;1.33;;;;;;;21.71;41.84;96573.34;5033057;28;20473;-30
2023/05/06 09:30:10;;;;;;;2.28;1.15;;;;;;;21.67;41.85;96573.59;5032777;28;20071;-29
2023/05/06 09:32:36;;;;;;;2.50;1.10;;;;;;;21.74;41.73;96567.59;5032693;28;20022;-29
2023/05/06 09:35:02;;;;;;;1.63;1.30;;;;;;;21.70;42.25;96567.09;5032804;28;20025;-29
2023/05/06 09:37:28;;;;;;;1.60;1.10;;;;;;;21.83;41.78;96570.13;5032861;28;20021;-29
2023/05/06 09:39:55;;;;;;;1.92;1.10;;;;;;;21.85;41.86;96566.88;5032710;28;20032;-29
2023/05/06 09:42:25;;;;;;;2.83;1.33;;;;;;;21.84;42.21;96574.41;5032745;28;20079;-30
2023/05/06 09:44:58;;;;;;;1.88;1.30;;;;;;;21.79;42.26;96580.66;5032544;28;20035;-30
2023/05/06 09:47:25;;;;;;;2.50;1.60;;;;;;;21.76;42.03;96576.13;5032805;28;20029;-29
2023/05/06 09:49:56;;;;;;;1.98;1.50;;;;;;;21.84;41.85;96568.88;5032575;28;20079;-29
2023/05/06 09:52:22;;;;;;;3.55;1.23;;;;;;;21.84;41.88;96568.13;5035136;28;20087;-29
2023/05/06 09:54:50;;;;;;;2.70;1.30;;;;;;;21.90;41.83;96568.13;5039916;28;20049;-29
2023/05/06 09:57:17;;;;;;;3.97;1.90;;;;;;;21.89;41.55;96564.63;5033565;28;20021;-30
2023/05/06 09:59:43;;;;;;;4.93;1.58;;;;;;;21.93;40.36;96562.38;5036237;28;20033;-29
2023/05/06 10:02:11;;;;;;;2.50;1.38;;;;;;;21.94;39.98;96557.59;5035936;28;20028;-29
2023/05/06 10:04:40;;;;;;;4.55;1.20;;;;;;;21.83;38.99;96558.34;5036069;28;20113;-29
2023/05/06 10:07:07;;;;;;;1.40;1.15;;;;;;;21.93;39.12;96562.38;5034864;28;20037;-30
2023/05/06 10:09:34;;;;;;;1.50;1.00;;;;;;;21.99;38.39;96565.19;5036101;28;20100;-29
2023/05/06 10:12:01;;;;;;;2.40;1.05;;;;;;;22.07;38.96;96563.44;5036489;28;20087;-30
2023/05/06 10:14:27;;;;;;;2.20;0.95;;;;;;;22.02;37.57;96564.16;5036240;28;20036;-29
2023/05/06 10:16:53;;;;;;;3.40;1.25;;;;;;;21.98;38.33;96558.13;5034806;28;20021;-30
2023/05/06 10:19:24;;;;;;;2.80;1.35;;;;;;;22.02;37.90;96566.94;5034728;28;20021;-30
2023/05/06 10:22:28;;;;;;;2.90;1.17;;;;;;;21.97;38.06;96556.63;5035749;28;20029;-29
2023/05/06 10:25:11;;;;;;;2.20;0.93;;;;;;;21.97;38.18;96562.13;5034859;28;20037;-29
2023/05/06 10:27:42;;;;;;;2.05;1.25;;;;;;;22.00;39.13;96559.19;5035929;28;20040;-29
2023/05/06 10:30:09;;;;;;;1.48;1.35;;;;;;;22.04;39.70;96562.44;5035754;28;20029;-29
2023/05/06 10:32:40;;;;;;;2.60;1.45;;;;;;;22.08;39.95;96559.44;5037253;28;20025;-29
2023/05/06 10:35:31;;;;;;;1.83;1.17;;;;;;;22.04;39.85;96551.38;5035474;28;20092;-29
2023/05/06 10:37:58;;;;;;;2.78;1.60;;;;;;;22.13;39.97;96558.69;5042850;28;20037;-29
2023/05/06 10:40:24;;;;;;;1.48;1.17;;;;;;;22.02;40.02;96553.13;5035394;28;20053;-29
2023/05/06 10:42:50;;;;;;;1.45;1.17;;;;;;;22.03;39.83;96555.41;5035352;28;20084;-29
2023/05/06 10:45:16;;;;;;;2.25;1.20;;;;;;;22.16;39.73;96552.16;5035716;28;20017;-29
2023/05/06 10:47:56;;;;;;;1.55;1.13;;;;;;;22.13;38.87;96553.16;5035283;28;20030;-29
2023/05/06 10:50:26;;;;;;;1.33;0.98;;;;;;;22.10;38.97;96554.91;5035192;28;20025;-29
2023/05/06 10:52:56;;;;;;;3.45;1.20;;;;;;;22.15;38.68;96551.41;5034833;28;20024;-29
2023/05/06 10:55:32;;;;;;;1.65;0.85;;;;;;;22.12;38.64;96557.19;5035420;28;20038;-29
2023/05/06 10:58:10;;;;;;;1.20;0.90;;;;;;;22.09;38.32;96542.34;5035303;28;20029;-30
2023/05/06 11:00:36;;;;;;;1.38;0.98;;;;;;;22.12;38.54;96546.13;5035683;28;20461;-29
2023/05/06 11:03:05;;;;;;;1.45;1.10;;;;;;;22.16;38.81;96543.88;5044862;28;20030;-29
2023/05/06 11:05:31;;;;;;;3.95;2.28;;;;;;;22.20;38.40;96545.13;5035187;28;20021;-30
2023/05/06 11:08:10;;;;;;;4.65;2.88;;;;;;;22.20;38.57;96552.66;5034961;28;20385;-30
2023/05/06 11:10:36;;;;;;;2.80;1.77;;;;;;;22.20;37.44;96544.38;5042219;28;20087;-29
2023/05/06 11:13:21;;;;;;;3.53;1.92;;;;;;;22.19;37.32;96551.91;5034964;28;20014;-30
2023/05/06 11:15:50;;;;;;;8.95;4.82;;;;;;;22.22;38.12;96550.16;5034976;28;20025;-29
2023/05/06 11:18:33;;;;;;;5.05;2.88;;;;;;;22.14;38.99;96549.88;5035078;28;20075;-29
2023/05/06 11:20:58;;;;;;;5.03;2.78;;;;;;;22.15;39.42;96554.16;5034930;28;20385;-29
2023/05/06 11:23:53;;;;;;;3.10;2.10;;;;;;;22.19;40.03;96551.91;5033528;28;20033;-29
2023/05/06 11:26:20;;;;;;;5.78;3.50;;;;;;;22.25;40.54;96545.66;5034647;28;20025;-29
2023/05/06 11:28:47;;;;;;;5.65;3.08;;;;;;;22.24;40.32;96553.19;5034931;28;20020;-29
2023/05/06 11:31:14;;;;;;;5.25;2.55;;;;;;;22.21;40.53;96548.66;5034679;28;20021;-29
2023/05/06 11:33:48;;;;;;;3.20;2.15;;;;;;;22.22;41.14;96555.69;5033170;28;20108;-29